Time;durP1;ratioP1;P1;durP2;ratioP2;P2;SDS_P1;SDS_P2;PMS_P1;PMS_P2;Temp;Humidity;BMP_temperature;BMP_pressure;BME280_temperature;BME280_humidity;BME280_pressure;Samples;Min_cycle;Max_cycle;Signal;HPM_P1;HPM_P2
2023/06/04 00:00:06;;;;;;;1.50;1.20;;;;;;;;;;5084518;28;20119;-58
2023/06/04 00:02:33;;;;;;;2.53;1.25;;;;;;;;;;5086609;28;20103;-57
2023/06/04 00:04:59;;;;;;;3.38;1.30;;;;;;;;;;5071388;28;20490;-57
2023/06/04 00:07:26;;;;;;;1.80;1.33;;;;;;;;;;5073933;28;20066;-58
2023/06/04 00:09:53;;;;;;;4.32;1.52;;;;;;;;;;5081780;28;20610;-58
2023/06/04 00:12:20;;;;;;;1.80;0.93;;;;;;;;;;5072685;28;20064;-57
2023/06/04 00:14:46;;;;;;;1.50;1.00;;;;;;;;;;5082006;28;20521;-56
2023/06/04 00:17:12;;;;;;;4.00;1.23;;;;;;;;;;5072914;28;20160;-59
2023/06/04 00:19:40;;;;;;;2.08;1.20;;;;;;;;;;5075864;28;20063;-59
2023/06/04 00:22:06;;;;;;;2.03;1.40;;;;;;;;;;5085615;28;20060;-58
2023/06/04 00:24:34;;;;;;;3.88;1.27;;;;;;;;;;5074937;28;20060;-57
2023/06/04 00:27:00;;;;;;;2.72;1.35;;;;;;;;;;5078043;28;20056;-56
2023/06/04 00:29:26;;;;;;;1.30;1.20;;;;;;;;;;5074105;28;20131;-58
2023/06/04 00:31:53;;;;;;;2.78;1.48;;;;;;;;;;5065953;28;20599;-58
2023/06/04 00:34:19;;;;;;;1.50;1.08;;;;;;;;;;5065447;28;20053;-58
2023/06/04 00:36:45;;;;;;;3.00;1.48;;;;;;;;;;5064901;28;20107;-56
2023/06/04 00:39:12;;;;;;;1.95;1.30;;;;;;;;;;5065949;28;20056;-57
2023/06/04 00:41:38;;;;;;;1.00;1.00;;;;;;;;;;5065692;28;20080;-58
2023/06/04 00:44:06;;;;;;;1.75;1.00;;;;;;;;;;5081770;28;20492;-58
2023/06/04 00:46:35;;;;;;;3.78;1.20;;;;;;;;;;5084989;28;20052;-58
2023/06/04 00:49:02;;;;;;;2.85;1.48;;;;;;;;;;5079838;28;20060;-57
2023/06/04 00:51:30;;;;;;;1.30;1.20;;;;;;;;;;5065198;28;20057;-57
2023/06/04 00:53:57;;;;;;;2.10;1.42;;;;;;;;;;5066294;28;20049;-58
2023/06/04 00:56:23;;;;;;;2.30;1.30;;;;;;;;;;5066039;28;20593;-57
2023/06/04 00:58:50;;;;;;;1.25;1.00;;;;;;;;;;5074271;28;20061;-58
2023/06/04 01:01:16;;;;;;;4.80;1.95;;;;;;;;;;5066622;28;20138;-58
2023/06/04 01:03:45;;;;;;;2.40;1.20;;;;;;;;;;5065179;28;20053;-57
2023/06/04 01:06:11;;;;;;;2.65;1.23;;;;;;;;;;5065150;28;20116;-58
2023/06/04 01:08:42;;;;;;;2.67;1.50;;;;;;;;;;5065388;28;20052;-57
2023/06/04 01:11:09;;;;;;;2.85;1.40;;;;;;;;;;5065483;28;20059;-58
2023/06/04 01:13:35;;;;;;;2.85;1.35;;;;;;;;;;5065358;28;20049;-56
2023/06/04 01:16:03;;;;;;;2.05;1.20;;;;;;;;;;5066833;28;20033;-57
2023/06/04 01:18:30;;;;;;;4.97;1.38;;;;;;;;;;5083687;28;20139;-57
2023/06/04 01:20:58;;;;;;;1.75;1.10;;;;;;;;;;5086203;28;20082;-59
2023/06/04 01:23:35;;;;;;;1.20;1.10;;;;;;;;;;5086190;28;20049;-58
2023/06/04 01:26:03;;;;;;;1.27;1.17;;;;;;;;;;5083977;28;20110;-58
2023/06/04 01:28:32;;;;;;;1.33;1.10;;;;;;;;;;5084004;28;20060;-57
2023/06/04 01:30:59;;;;;;;2.92;1.40;;;;;;;;;;5081654;28;20053;-58
2023/06/04 01:33:26;;;;;;;2.30;1.33;;;;;;;;;;5069730;28;20053;-57
2023/06/04 01:35:52;;;;;;;1.85;1.38;;;;;;;;;;5065185;28;20049;-59
2023/06/04 01:38:18;;;;;;;3.50;1.50;;;;;;;;;;5064763;28;20057;-57
2023/06/04 01:40:45;;;;;;;1.90;1.27;;;;;;;;;;5066126;28;20073;-57
2023/06/04 01:43:11;;;;;;;5.40;1.38;;;;;;;;;;5067781;28;20100;-54
2023/06/04 01:45:38;;;;;;;1.38;1.00;;;;;;;;;;5075486;28;20114;-58
2023/06/04 01:48:05;;;;;;;2.25;1.25;;;;;;;;;;5075198;28;20103;-59
2023/06/04 01:50:32;;;;;;;1.63;1.20;;;;;;;;;;5081707;28;20437;-57
2023/06/04 01:52:58;;;;;;;3.45;1.40;;;;;;;;;;5065828;28;20059;-58
2023/06/04 01:55:25;;;;;;;4.00;1.40;;;;;;;;;;5064593;28;20049;-58
2023/06/04 01:57:52;;;;;;;1.80;1.50;;;;;;;;;;5065211;28;20057;-58
2023/06/04 02:00:18;;;;;;;1.95;1.67;;;;;;;;;;5077825;28;20059;-58
2023/06/04 02:02:48;;;;;;;2.13;1.38;;;;;;;;;;5083210;28;20052;-58
2023/06/04 02:05:14;;;;;;;1.48;1.23;;;;;;;;;;5084898;28;20499;-58
2023/06/04 02:07:44;;;;;;;2.03;1.13;;;;;;;;;;5085034;28;20056;-58
2023/06/04 02:10:11;;;;;;;1.20;1.10;;;;;;;;;;5071618;28;20045;-58
2023/06/04 02:12:39;;;;;;;1.75;1.35;;;;;;;;;;5065553;28;20529;-57
2023/06/04 02:15:07;;;;;;;1.75;1.13;;;;;;;;;;5064254;28;20649;-56
2023/06/04 02:17:37;;;;;;;3.17;1.23;;;;;;;;;;5062778;28;20568;-58
2023/06/04 02:20:04;;;;;;;2.38;1.42;;;;;;;;;;5063725;28;20059;-58
2023/06/04 02:22:31;;;;;;;3.60;1.48;;;;;;;;;;5077355;28;20106;-58
2023/06/04 02:24:57;;;;;;;3.50;1.75;;;;;;;;;;5084493;28;20063;-53
2023/06/04 02:27:24;;;;;;;2.47;1.42;;;;;;;;;;5079431;28;20521;-58
2023/06/04 02:29:50;;;;;;;4.03;1.40;;;;;;;;;;5081885;28;20106;-58
2023/06/04 02:32:17;;;;;;;3.45;1.35;;;;;;;;;;5084821;28;20053;-57
2023/06/04 02:34:44;;;;;;;3.72;1.50;;;;;;;;;;5084810;28;20101;-58
2023/06/04 02:37:10;;;;;;;3.67;1.45;;;;;;;;;;5083274;28;20079;-59
2023/06/04 02:39:37;;;;;;;2.33;1.40;;;;;;;;;;5064718;28;20067;-59
2023/06/04 02:42:03;;;;;;;1.73;1.35;;;;;;;;;;5079122;28;20103;-59
2023/06/04 02:44:30;;;;;;;4.43;1.55;;;;;;;;;;5082436;28;20059;-58
2023/06/04 02:46:57;;;;;;;2.15;1.23;;;;;;;;;;5083589;28;20052;-58
2023/06/04 02:49:23;;;;;;;3.78;1.40;;;;;;;;;;5079749;28;20056;-58
2023/06/04 02:51:50;;;;;;;3.13;1.50;;;;;;;;;;5081953;28;20048;-58
2023/06/04 02:54:16;;;;;;;2.15;1.58;;;;;;;;;;5080788;28;20102;-58
2023/06/04 02:56:44;;;;;;;3.25;1.75;;;;;;;;;;5067152;28;20083;-57
2023/06/04 02:59:10;;;;;;;1.05;1.05;;;;;;;;;;5082681;28;20103;-58
2023/06/04 03:01:40;;;;;;;2.55;1.40;;;;;;;;;;5077739;28;20921;-58
2023/06/04 03:04:09;;;;;;;2.17;1.52;;;;;;;;;;5077376;28;20052;-57
2023/06/04 03:06:39;;;;;;;1.88;1.30;;;;;;;;;;5064153;28;20044;-58
2023/06/04 03:09:06;;;;;;;2.17;1.65;;;;;;;;;;5065952;28;20115;-58
2023/06/04 03:11:33;;;;;;;1.50;1.40;;;;;;;;;;5070340;28;20053;-57
2023/06/04 03:13:59;;;;;;;1.95;1.55;;;;;;;;;;5063939;28;20063;-58
2023/06/04 03:16:25;;;;;;;3.42;1.88;;;;;;;;;;5078999;28;20045;-58
2023/06/04 03:18:52;;;;;;;3.20;1.88;;;;;;;;;;5085878;28;20126;-58
2023/06/04 03:21:18;;;;;;;2.25;1.70;;;;;;;;;;5080412;28;20053;-55
2023/06/04 03:23:45;;;;;;;1.88;1.30;;;;;;;;;;5070196;28;20088;-58
2023/06/04 03:26:14;;;;;;;3.15;1.80;;;;;;;;;;5066676;28;20110;-55
2023/06/04 03:28:40;;;;;;;2.80;1.90;;;;;;;;;;5068928;28;20055;-59
2023/06/04 03:31:07;;;;;;;3.15;1.88;;;;;;;;;;5070401;28;20064;-57
2023/06/04 03:33:34;;;;;;;2.75;1.90;;;;;;;;;;5065157;28;20103;-55
2023/06/04 03:36:00;;;;;;;2.17;1.90;;;;;;;;;;5066562;28;20430;-52
2023/06/04 03:38:27;;;;;;;2.70;1.70;;;;;;;;;;5082914;28;20434;-53
2023/06/04 03:40:53;;;;;;;2.58;1.90;;;;;;;;;;5084641;28;20079;-57
2023/06/04 03:43:20;;;;;;;3.30;1.90;;;;;;;;;;5067183;28;20076;-57
2023/06/04 03:45:46;;;;;;;4.50;1.52;;;;;;;;;;5073968;28;20056;-56
2023/06/04 03:48:13;;;;;;;3.38;1.85;;;;;;;;;;5078925;28;20812;-58
2023/06/04 03:50:39;;;;;;;3.30;1.73;;;;;;;;;;5066773;28;20088;-57
2023/06/04 03:53:06;;;;;;;1.73;1.63;;;;;;;;;;5069732;28;20052;-58
2023/06/04 03:55:32;;;;;;;4.72;1.77;;;;;;;;;;5072805;28;20072;-57
2023/06/04 03:57:59;;;;;;;2.97;1.42;;;;;;;;;;5073009;28;20056;-56
2023/06/04 04:00:26;;;;;;;1.92;1.38;;;;;;;;;;5066997;28;20060;-58
2023/06/04 04:02:52;;;;;;;3.85;1.67;;;;;;;;;;5075401;28;20053;-57
2023/06/04 04:05:19;;;;;;;4.95;1.85;;;;;;;;;;5066696;28;20049;-57
2023/06/04 04:07:47;;;;;;;2.53;1.35;;;;;;;;;;5080109;28;20052;-57
2023/06/04 04:10:13;;;;;;;4.47;1.90;;;;;;;;;;5071040;28;20923;-56
2023/06/04 04:12:40;;;;;;;1.77;1.50;;;;;;;;;;5083132;28;20504;-58
2023/06/04 04:15:06;;;;;;;1.80;1.45;;;;;;;;;;5085439;28;20127;-56
2023/06/04 04:17:33;;;;;;;7.45;2.03;;;;;;;;;;5082987;28;20110;-57
2023/06/04 04:19:59;;;;;;;4.50;1.42;;;;;;;;;;5085949;28;20053;-58
2023/06/04 04:22:25;;;;;;;5.25;1.70;;;;;;;;;;5067434;28;20107;-55
2023/06/04 04:24:52;;;;;;;5.95;1.63;;;;;;;;;;5066264;28;20103;-54
2023/06/04 04:27:18;;;;;;;3.65;2.20;;;;;;;;;;5069034;28;20050;-58
2023/06/04 04:29:48;;;;;;;4.97;1.95;;;;;;;;;;5085486;28;20102;-55
2023/06/04 04:32:16;;;;;;;2.60;2.10;;;;;;;;;;5083028;28;20053;-56
2023/06/04 04:34:54;;;;;;;6.07;2.00;;;;;;;;;;5066176;28;20033;-58
2023/06/04 04:37:21;;;;;;;3.58;2.20;;;;;;;;;;5071448;28;20052;-58
2023/06/04 04:39:51;;;;;;;5.85;2.08;;;;;;;;;;5066640;28;20053;-57
2023/06/04 04:42:18;;;;;;;5.22;1.85;;;;;;;;;;5072845;28;20053;-57
2023/06/04 04:44:47;;;;;;;2.78;1.70;;;;;;;;;;5084291;28;20110;-57
2023/06/04 04:47:14;;;;;;;5.63;2.00;;;;;;;;;;5070620;28;20497;-58
2023/06/04 04:49:41;;;;;;;4.53;2.15;;;;;;;;;;5064559;28;20049;-57
2023/06/04 04:52:07;;;;;;;4.88;1.92;;;;;;;;;;5067750;28;20056;-58
2023/06/04 04:54:33;;;;;;;5.50;2.13;;;;;;;;;;5078008;28;20136;-57
2023/06/04 04:57:00;;;;;;;5.93;2.00;;;;;;;;;;5066917;28;20053;-58
2023/06/04 04:59:39;;;;;;;3.88;2.30;;;;;;;;;;5069813;28;20056;-58
2023/06/04 05:02:05;;;;;;;2.75;2.00;;;;;;;;;;5079629;28;20168;-54
2023/06/04 05:04:32;;;;;;;8.80;2.78;;;;;;;;;;5066337;28;20060;-56
2023/06/04 05:06:58;;;;;;;3.90;1.80;;;;;;;;;;5079278;28;20457;-52
2023/06/04 05:09:25;;;;;;;5.53;2.70;;;;;;;;;;5072296;28;20052;-58
2023/06/04 05:11:51;;;;;;;4.70;2.05;;;;;;;;;;5078668;28;20140;-58
2023/06/04 05:14:18;;;;;;;3.47;2.17;;;;;;;;;;5083069;28;20134;-56
2023/06/04 05:16:45;;;;;;;4.72;2.60;;;;;;;;;;5080895;28;20084;-54
2023/06/04 05:19:11;;;;;;;5.65;2.85;;;;;;;;;;5085769;28;20117;-57
2023/06/04 05:21:39;;;;;;;6.18;2.75;;;;;;;;;;5069829;28;20462;-55
2023/06/04 05:24:05;;;;;;;4.15;1.98;;;;;;;;;;5080776;28;20055;-58
2023/06/04 05:26:33;;;;;;;5.22;2.58;;;;;;;;;;5068851;28;20543;-58
2023/06/04 05:28:59;;;;;;;7.45;2.45;;;;;;;;;;5073212;28;20056;-56
2023/06/04 05:31:26;;;;;;;6.80;2.60;;;;;;;;;;5078229;28;20435;-57
2023/06/04 05:33:53;;;;;;;4.05;2.55;;;;;;;;;;5072305;28;20052;-57
2023/06/04 05:36:19;;;;;;;4.85;2.30;;;;;;;;;;5074997;28;20594;-57
2023/06/04 05:38:46;;;;;;;5.25;2.13;;;;;;;;;;5078067;28;20052;-58
2023/06/04 05:41:12;;;;;;;3.42;2.25;;;;;;;;;;5074429;28;20102;-58
2023/06/04 05:43:38;;;;;;;4.75;2.30;;;;;;;;;;5077335;28;20144;-58
2023/06/04 05:46:07;;;;;;;5.47;1.95;;;;;;;;;;5074049;28;20090;-57
2023/06/04 05:48:33;;;;;;;6.53;2.22;;;;;;;;;;5069618;28;20502;-56
2023/06/04 05:51:00;;;;;;;4.38;1.58;;;;;;;;;;5068535;28;20544;-56
2023/06/04 05:53:26;;;;;;;4.32;1.80;;;;;;;;;;5084237;28;20052;-57
2023/06/04 05:55:53;;;;;;;2.65;2.05;;;;;;;;;;5079615;28;20060;-57
2023/06/04 05:58:19;;;;;;;3.38;1.90;;;;;;;;;;5070866;28;20114;-56
2023/06/04 06:00:46;;;;;;;3.00;2.13;;;;;;;;;;5073085;28;20584;-57
2023/06/04 06:03:12;;;;;;;5.63;1.75;;;;;;;;;;5065368;28;20076;-56
2023/06/04 06:05:39;;;;;;;3.20;1.90;;;;;;;;;;5084410;28;20148;-55
2023/06/04 06:08:06;;;;;;;2.83;1.92;;;;;;;;;;5083881;28;20538;-57
2023/06/04 06:10:32;;;;;;;2.42;1.80;;;;;;;;;;5083435;28;20048;-60
2023/06/04 06:13:00;;;;;;;3.10;1.45;;;;;;;;;;5083603;28;20087;-56
2023/06/04 06:15:28;;;;;;;4.55;1.90;;;;;;;;;;5083442;28;20053;-55
2023/06/04 06:17:55;;;;;;;5.38;2.03;;;;;;;;;;5076523;28;20239;-57
2023/06/04 06:20:21;;;;;;;2.40;1.92;;;;;;;;;;5079512;28;20103;-57
2023/06/04 06:22:48;;;;;;;3.17;1.90;;;;;;;;;;5078395;28;20057;-58
2023/06/04 06:25:15;;;;;;;5.63;1.77;;;;;;;;;;5074025;28;20082;-54
2023/06/04 06:27:42;;;;;;;4.60;2.17;;;;;;;;;;5083861;28;20052;-56
2023/06/04 06:30:09;;;;;;;2.85;1.55;;;;;;;;;;5078828;28;20592;-56
2023/06/04 06:32:36;;;;;;;6.22;2.10;;;;;;;;;;5071914;28;20049;-56
2023/06/04 06:35:03;;;;;;;4.82;2.10;;;;;;;;;;5078660;28;20052;-57
2023/06/04 06:37:29;;;;;;;6.85;1.80;;;;;;;;;;5082727;28;20057;-58
2023/06/04 06:39:56;;;;;;;6.70;1.60;;;;;;;;;;5081752;28;20623;-57
2023/06/04 06:42:22;;;;;;;2.55;1.50;;;;;;;;;;5081871;28;20064;-56
2023/06/04 06:44:48;;;;;;;4.90;1.75;;;;;;;;;;5082180;28;20106;-57
2023/06/04 06:47:15;;;;;;;2.65;1.67;;;;;;;;;;5082634;28;20084;-58
2023/06/04 06:49:41;;;;;;;2.05;1.85;;;;;;;;;;5086976;28;20057;-58
2023/06/04 06:52:08;;;;;;;2.90;1.85;;;;;;;;;;5091768;28;20099;-57
2023/06/04 06:54:34;;;;;;;5.68;1.65;;;;;;;;;;5079561;28;20061;-58
2023/06/04 06:57:00;;;;;;;3.38;1.75;;;;;;;;;;5082958;28;20048;-58
2023/06/04 06:59:27;;;;;;;3.08;1.73;;;;;;;;;;5087531;28;20045;-58
2023/06/04 07:01:53;;;;;;;4.22;2.50;;;;;;;;;;5073102;28;20834;-53
2023/06/04 07:04:20;;;;;;;2.78;1.60;;;;;;;;;;5077547;28;20111;-57
2023/06/04 07:06:46;;;;;;;1.73;1.45;;;;;;;;;;5069692;28;20057;-54
2023/06/04 07:09:13;;;;;;;3.20;1.67;;;;;;;;;;5076324;28;20127;-55
2023/06/04 07:11:39;;;;;;;6.15;1.60;;;;;;;;;;5067289;28;20052;-54
2023/06/04 07:14:06;;;;;;;2.17;1.50;;;;;;;;;;5078099;28;20133;-57
2023/06/04 07:16:32;;;;;;;1.90;1.50;;;;;;;;;;5067484;28;20057;-53
2023/06/04 07:19:00;;;;;;;2.40;1.40;;;;;;;;;;5078106;28;20123;-58
2023/06/04 07:21:27;;;;;;;10.25;2.10;;;;;;;;;;5079986;28;20107;-56
2023/06/04 07:23:53;;;;;;;3.13;1.48;;;;;;;;;;5065898;28;20059;-57
2023/06/04 07:26:20;;;;;;;2.90;1.52;;;;;;;;;;5086793;28;20172;-58
2023/06/04 07:28:46;;;;;;;7.97;1.98;;;;;;;;;;5080985;28;20107;-52
2023/06/04 07:31:16;;;;;;;3.53;1.77;;;;;;;;;;5070061;28;20057;-55
2023/06/04 07:33:43;;;;;;;4.47;1.58;;;;;;;;;;5070746;28;20483;-52
2023/06/04 07:36:11;;;;;;;2.75;1.65;;;;;;;;;;5069094;28;20053;-57
2023/06/04 07:38:37;;;;;;;3.60;2.00;;;;;;;;;;5071246;28;20051;-55
2023/06/04 07:41:03;;;;;;;3.92;1.88;;;;;;;;;;5071965;28;20053;-58
2023/06/04 07:43:30;;;;;;;2.38;1.40;;;;;;;;;;5075369;28;20520;-58
2023/06/04 07:45:57;;;;;;;2.83;1.25;;;;;;;;;;5076750;28;20045;-57
2023/06/04 07:48:30;;;;;;;2.13;1.60;;;;;;;;;;5076053;28;20057;-56
2023/06/04 07:50:57;;;;;;;2.78;1.40;;;;;;;;;;5066680;28;20053;-55
2023/06/04 07:53:24;;;;;;;4.97;2.22;;;;;;;;;;5070442;28;20049;-56
2023/06/04 07:55:51;;;;;;;5.47;1.50;;;;;;;;;;5084126;28;20526;-55
2023/06/04 07:58:17;;;;;;;3.38;1.55;;;;;;;;;;5073629;28;20057;-53
2023/06/04 08:00:44;;;;;;;4.10;1.50;;;;;;;;;;5065964;28;20111;-58
2023/06/04 08:03:10;;;;;;;3.45;1.60;;;;;;;;;;5077402;28;20053;-58
2023/06/04 08:05:36;;;;;;;5.05;1.77;;;;;;;;;;5068311;28;20139;-53
2023/06/04 08:08:03;;;;;;;2.17;1.40;;;;;;;;;;5076782;28;20127;-58
2023/06/04 08:10:30;;;;;;;3.85;1.52;;;;;;;;;;5080627;28;20080;-55
2023/06/04 08:12:56;;;;;;;2.15;1.35;;;;;;;;;;5075163;28;20060;-54
2023/06/04 08:15:23;;;;;;;3.92;1.40;;;;;;;;;;5073515;28;20060;-57
2023/06/04 08:17:50;;;;;;;1.67;1.30;;;;;;;;;;5077936;28;20986;-58
2023/06/04 08:20:16;;;;;;;3.30;1.58;;;;;;;;;;5065191;28;20089;-57
2023/06/04 08:22:42;;;;;;;1.20;1.15;;;;;;;;;;5066240;28;20146;-56
2023/06/04 08:25:09;;;;;;;2.38;1.40;;;;;;;;;;5073850;28;20071;-53
2023/06/04 08:27:35;;;;;;;2.30;0.95;;;;;;;;;;5085483;28;20083;-54
2023/06/04 08:30:02;;;;;;;1.77;1.38;;;;;;;;;;5078414;28;20084;-57
2023/06/04 08:32:28;;;;;;;2.70;1.10;;;;;;;;;;5086071;28;20048;-57
2023/06/04 08:34:55;;;;;;;2.30;1.30;;;;;;;;;;5078003;28;20601;-57
2023/06/04 08:37:21;;;;;;;3.15;1.17;;;;;;;;;;5068185;28;20057;-56
2023/06/04 08:39:47;;;;;;;3.75;1.30;;;;;;;;;;5066278;28;20045;-55
2023/06/04 08:42:27;;;;;;;7.93;1.02;;;;;;;;;;5066139;28;20048;-58
2023/06/04 08:44:53;;;;;;;2.60;1.33;;;;;;;;;;5072766;28;20047;-55
2023/06/04 08:47:23;;;;;;;1.70;1.27;;;;;;;;;;5084420;28;20095;-57
2023/06/04 08:49:51;;;;;;;3.28;1.38;;;;;;;;;;5086409;28;20106;-58
2023/06/04 08:52:21;;;;;;;4.38;1.30;;;;;;;;;;5085519;28;20045;-58
2023/06/04 08:54:51;;;;;;;2.55;1.30;;;;;;;;;;5084944;28;20118;-56
2023/06/04 08:57:18;;;;;;;3.80;1.23;;;;;;;;;;5085818;28;20140;-59
2023/06/04 08:59:45;;;;;;;5.22;1.25;;;;;;;;;;5076399;28;20059;-52
2023/06/04 09:02:15;;;;;;;3.85;1.00;;;;;;;;;;5067102;28;20089;-59
2023/06/04 09:04:42;;;;;;;4.40;1.00;;;;;;;;;;5068843;28;20545;-55
2023/06/04 09:07:10;;;;;;;1.83;1.23;;;;;;;;;;5074707;28;20067;-54
2023/06/04 09:09:40;;;;;;;4.32;1.38;;;;;;;;;;5072195;28;20506;-59
2023/06/04 09:12:10;;;;;;;2.10;1.02;;;;;;;;;;5081926;28;20537;-57
2023/06/04 09:14:36;;;;;;;2.10;1.05;;;;;;;;;;5085639;28;20122;-57
2023/06/04 09:17:03;;;;;;;1.58;1.10;;;;;;;;;;5087079;28;20052;-53
2023/06/04 09:19:29;;;;;;;3.45;0.98;;;;;;;;;;5084115;28;20102;-56
2023/06/04 09:21:56;;;;;;;4.40;0.98;;;;;;;;;;5080861;28;20667;-59
2023/06/04 09:24:38;;;;;;;3.88;1.20;;;;;;;;;;5082878;28;20152;-57
2023/06/04 09:27:12;;;;;;;2.38;1.48;;;;;;;;;;5089089;28;20470;-58
2023/06/04 09:29:39;;;;;;;4.10;1.42;;;;;;;;;;5070436;28;20052;-55
2023/06/04 09:32:06;;;;;;;5.40;1.30;;;;;;;;;;5077582;28;20107;-59
2023/06/04 09:34:32;;;;;;;1.48;1.23;;;;;;;;;;5076473;28;20056;-58
2023/06/04 09:36:58;;;;;;;2.60;1.10;;;;;;;;;;5082568;28;20138;-60
2023/06/04 09:39:25;;;;;;;4.53;1.55;;;;;;;;;;5081463;28;21194;-60
2023/06/04 09:42:01;;;;;;;1.75;1.10;;;;;;;;;;5076275;28;20054;-58
2023/06/04 09:44:31;;;;;;;3.58;1.42;;;;;;;;;;5068627;28;20055;-57
2023/06/04 09:46:57;;;;;;;1.33;1.10;;;;;;;;;;5067930;28;20095;-57
2023/06/04 09:49:24;;;;;;;1.90;0.90;;;;;;;;;;5068276;28;20056;-58
2023/06/04 09:51:51;;;;;;;2.35;1.48;;;;;;;;;;5068725;28;20060;-56
2023/06/04 09:54:17;;;;;;;3.83;1.35;;;;;;;;;;5071712;28;20053;-58
2023/06/04 09:56:44;;;;;;;2.20;0.93;;;;;;;;;;5072216;28;20048;-59
2023/06/04 09:59:11;;;;;;;1.63;0.82;;;;;;;;;;5069603;28;20053;-59
2023/06/04 10:01:43;;;;;;;4.10;0.90;;;;;;;;;;5083179;28;20048;-58
2023/06/04 10:04:11;;;;;;;1.05;0.80;;;;;;;;;;5101545;28;20056;-59
2023/06/04 10:06:38;;;;;;;0.95;0.60;;;;;;;;;;5073243;28;20130;-59
2023/06/04 10:09:06;;;;;;;0.90;0.65;;;;;;;;;;5080755;28;20512;-55
2023/06/04 10:11:44;;;;;;;1.88;0.95;;;;;;;;;;5063841;28;20079;-57
2023/06/04 10:14:22;;;;;;;1.38;0.60;;;;;;;;;;5069546;28;20057;-58
2023/06/04 10:16:50;;;;;;;1.50;0.85;;;;;;;;;;5075027;28;20110;-58
2023/06/04 10:19:17;;;;;;;4.30;0.90;;;;;;;;;;5067596;28;20049;-57
2023/06/04 10:21:44;;;;;;;3.60;1.05;;;;;;;;;;5066034;28;20063;-57
2023/06/04 10:24:14;;;;;;;2.75;0.90;;;;;;;;;;5079858;28;20056;-55
2023/06/04 10:26:42;;;;;;;1.58;0.85;;;;;;;;;;5069379;28;20110;-58
2023/06/04 10:29:08;;;;;;;1.10;0.77;;;;;;;;;;5068793;28;20052;-59
2023/06/04 10:31:36;;;;;;;1.83;0.85;;;;;;;;;;5067538;28;20076;-58
2023/06/04 10:34:03;;;;;;;2.55;0.80;;;;;;;;;;5081553;28;20049;-57
2023/06/04 10:36:30;;;;;;;3.60;0.80;;;;;;;;;;5066042;28;20526;-59
2023/06/04 10:38:56;;;;;;;0.65;0.65;;;;;;;;;;5064101;28;20049;-59
2023/06/04 10:41:23;;;;;;;1.35;1.00;;;;;;;;;;5064329;28;20064;-59
2023/06/04 10:43:50;;;;;;;2.55;1.00;;;;;;;;;;5077659;28;20053;-58
2023/06/04 10:46:18;;;;;;;1.92;0.98;;;;;;;;;;5083064;28;20045;-58
2023/06/04 10:48:53;;;;;;;1.20;0.98;;;;;;;;;;5081773;28;20053;-59
2023/06/04 10:51:30;;;;;;;1.65;0.70;;;;;;;;;;5068217;28;20497;-59
2023/06/04 10:53:57;;;;;;;1.15;1.02;;;;;;;;;;5067475;28;20818;-59
2023/06/04 10:56:25;;;;;;;1.17;0.75;;;;;;;;;;5069051;28;20053;-60
2023/06/04 10:58:51;;;;;;;3.65;1.08;;;;;;;;;;5066163;28;20049;-58
2023/06/04 11:01:28;;;;;;;2.22;0.70;;;;;;;;;;5069339;28;20106;-60
2023/06/04 11:03:55;;;;;;;5.40;1.85;;;;;;;;;;5078033;28;20053;-59
2023/06/04 11:06:23;;;;;;;1.83;0.98;;;;;;;;;;5071726;28;20067;-58
2023/06/04 11:08:49;;;;;;;2.28;1.00;;;;;;;;;;5068927;28;20114;-58
2023/06/04 11:11:16;;;;;;;1.65;1.02;;;;;;;;;;5067714;28;20089;-59
2023/06/04 11:13:43;;;;;;;1.80;1.00;;;;;;;;;;5067191;28;20049;-58
2023/06/04 11:16:19;;;;;;;2.03;0.60;;;;;;;;;;5068482;28;20127;-59
2023/06/04 11:18:58;;;;;;;2.03;0.88;;;;;;;;;;5068021;28;20203;-59
2023/06/04 11:21:25;;;;;;;4.68;1.02;;;;;;;;;;5067268;28;20918;-59
2023/06/04 11:23:59;;;;;;;3.72;1.10;;;;;;;;;;5065409;28;20065;-59
2023/06/04 11:26:32;;;;;;;1.33;1.17;;;;;;;;;;5070999;28;20188;-56
2023/06/04 11:28:59;;;;;;;2.45;0.85;;;;;;;;;;5067953;28;20052;-58
2023/06/04 11:31:26;;;;;;;5.93;1.00;;;;;;;;;;5067330;28;20150;-59
2023/06/04 11:33:52;;;;;;;12.02;2.17;;;;;;;;;;5067782;28;20103;-57
2023/06/04 11:36:29;;;;;;;2.17;0.80;;;;;;;;;;5069689;28;20052;-58
2023/06/04 11:38:58;;;;;;;4.10;1.00;;;;;;;;;;5075691;28;20135;-59
2023/06/04 11:41:29;;;;;;;1.88;1.10;;;;;;;;;;5074927;28;20061;-58
2023/06/04 11:43:57;;;;;;;3.13;1.45;;;;;;;;;;5078835;28;20106;-59
2023/06/04 11:46:24;;;;;;;1.88;0.90;;;;;;;;;;5086950;28;20497;-59
2023/06/04 11:48:51;;;;;;;0.90;0.90;;;;;;;;;;5076742;28;20143;-58
2023/06/04 11:51:17;;;;;;;2.17;1.05;;;;;;;;;;5071297;28;20060;-58
2023/06/04 11:53:44;;;;;;;2.28;1.45;;;;;;;;;;5076308;28;20053;-58
2023/06/04 11:56:11;;;;;;;1.67;1.33;;;;;;;;;;5066048;28;20057;-59
2023/06/04 11:58:38;;;;;;;2.05;1.05;;;;;;;;;;5071184;28;20139;-56
2023/06/04 12:01:04;;;;;;;1.65;1.00;;;;;;;;;;5084339;28;20091;-59
2023/06/04 12:03:33;;;;;;;1.00;0.90;;;;;;;;;;5084396;28;20080;-58
2023/06/04 12:06:08;;;;;;;1.30;0.90;;;;;;;;;;5065582;28;20503;-59
2023/06/04 12:08:35;;;;;;;;;;;;;;;;;;5082916;28;20052;-56
2023/06/04 12:11:01;;;;;;;1.00;0.80;;;;;;;;;;5084560;28;43153;-59
2023/06/04 12:13:36;;;;;;;2.58;1.00;;;;;;;;;;5085994;28;20103;-57
2023/06/04 12:16:03;;;;;;;1.98;1.40;;;;;;;;;;5086474;28;20111;-56
2023/06/04 12:18:29;;;;;;;1.42;1.02;;;;;;;;;;5086500;28;20048;-58
2023/06/04 12:20:56;;;;;;;3.50;1.10;;;;;;;;;;5082617;28;20071;-57
2023/06/04 12:23:22;;;;;;;1.58;0.88;;;;;;;;;;5085395;28;20057;-58
2023/06/04 12:25:52;;;;;;;1.77;1.02;;;;;;;;;;5085675;28;20561;-58
2023/06/04 12:28:18;;;;;;;2.13;0.85;;;;;;;;;;5078991;28;20144;-56
2023/06/04 12:30:44;;;;;;;1.05;0.90;;;;;;;;;;5081180;28;20056;-58
2023/06/04 12:33:11;;;;;;;3.03;1.10;;;;;;;;;;5066979;28;20103;-57
2023/06/04 12:35:38;;;;;;;2.03;1.08;;;;;;;;;;5066090;28;20084;-59
2023/06/04 12:38:09;;;;;;;4.22;1.30;;;;;;;;;;5077547;28;20796;-59
2023/06/04 12:40:35;;;;;;;3.00;1.25;;;;;;;;;;5079347;28;20084;-56
2023/06/04 12:43:02;;;;;;;2.97;1.13;;;;;;;;;;5084699;28;20057;-58
2023/06/04 12:45:28;;;;;;;1.15;1.00;;;;;;;;;;5086651;28;20057;-57
2023/06/04 12:47:55;;;;;;;3.20;0.95;;;;;;;;;;5084435;28;20052;-57
2023/06/04 12:50:21;;;;;;;2.47;1.60;;;;;;;;;;5084450;28;20056;-41
2023/06/04 12:52:48;;;;;;;6.82;1.25;;;;;;;;;;5085929;28;20048;-60
2023/06/04 12:55:14;;;;;;;6.72;2.28;;;;;;;;;;5075261;28;20522;-60
2023/06/04 12:57:43;;;;;;;2.13;0.82;;;;;;;;;;5066038;28;20053;-59
2023/06/04 13:00:10;;;;;;;3.60;1.10;;;;;;;;;;5076745;28;20029;-58
2023/06/04 13:02:37;;;;;;;6.63;1.20;;;;;;;;;;5083822;28;20048;-59
2023/06/04 13:05:03;;;;;;;1.98;1.10;;;;;;;;;;5086083;28;20048;-59
2023/06/04 13:07:30;;;;;;;4.63;1.50;;;;;;;;;;5086244;28;20080;-59
2023/06/04 13:09:56;;;;;;;10.68;1.45;;;;;;;;;;5085312;28;20078;-59
2023/06/04 13:12:22;;;;;;;1.95;0.93;;;;;;;;;;5086228;28;20055;-58
2023/06/04 13:14:49;;;;;;;1.42;1.30;;;;;;;;;;5074173;28;20060;-59
2023/06/04 13:17:15;;;;;;;2.60;1.15;;;;;;;;;;5070939;28;20473;-58
2023/06/04 13:19:48;;;;;;;1.23;0.90;;;;;;;;;;5104639;28;20063;-58
2023/06/04 13:22:15;;;;;;;3.40;1.23;;;;;;;;;;5105257;27;20087;-56
2023/06/04 13:24:41;;;;;;;5.03;1.30;;;;;;;;;;5094661;27;20143;-59
2023/06/04 13:27:08;;;;;;;2.40;1.10;;;;;;;;;;5085027;28;20052;-59
2023/06/04 13:29:34;;;;;;;1.73;0.80;;;;;;;;;;5083672;28;20052;-59
2023/06/04 13:32:01;;;;;;;1.75;0.90;;;;;;;;;;5083702;28;20064;-60
2023/06/04 13:34:27;;;;;;;2.72;1.02;;;;;;;;;;5072548;28;20568;-62
2023/06/04 13:36:54;;;;;;;3.47;1.10;;;;;;;;;;5085252;28;20059;-58
2023/06/04 13:39:21;;;;;;;1.40;1.00;;;;;;;;;;5068211;28;20128;-60
2023/06/04 13:41:47;;;;;;;2.25;1.02;;;;;;;;;;5071264;28;20114;-59
2023/06/04 13:44:13;;;;;;;2.55;1.08;;;;;;;;;;5073073;28;20057;-57
2023/06/04 13:46:40;;;;;;;3.42;0.98;;;;;;;;;;5077948;28;20564;-59
2023/06/04 13:49:07;;;;;;;1.50;0.85;;;;;;;;;;5092672;27;20049;-58
2023/06/04 13:51:33;;;;;;;4.32;1.33;;;;;;;;;;5082529;27;20119;-59
2023/06/04 13:54:00;;;;;;;1.13;0.90;;;;;;;;;;5083805;28;20060;-60
2023/06/04 13:56:26;;;;;;;6.93;1.45;;;;;;;;;;5080209;28;20134;-59
2023/06/04 13:58:53;;;;;;;1.33;0.85;;;;;;;;;;5078499;28;20094;-59
2023/06/04 14:01:19;;;;;;;1.23;1.10;;;;;;;;;;5079767;28;20049;-55
2023/06/04 14:03:45;;;;;;;2.67;0.98;;;;;;;;;;5085729;28;20074;-59
2023/06/04 14:06:12;;;;;;;3.58;1.30;;;;;;;;;;5083489;28;20072;-59
2023/06/04 14:08:39;;;;;;;2.85;1.33;;;;;;;;;;5084956;28;20072;-58
2023/06/04 14:11:06;;;;;;;3.17;1.15;;;;;;;;;;5084281;28;20052;-59
2023/06/04 14:13:32;;;;;;;2.00;1.05;;;;;;;;;;5084048;28;20064;-59
2023/06/04 14:15:59;;;;;;;9.50;0.90;;;;;;;;;;5084084;28;20048;-59
2023/06/04 14:18:25;;;;;;;3.03;1.00;;;;;;;;;;5083822;28;20053;-59
2023/06/04 14:20:52;;;;;;;2.25;1.38;;;;;;;;;;5084414;28;20092;-58
2023/06/04 14:23:18;;;;;;;2.35;1.25;;;;;;;;;;5083568;28;20574;-57
2023/06/04 14:25:45;;;;;;;1.67;1.08;;;;;;;;;;5082867;28;20064;-59
2023/06/04 14:28:11;;;;;;;3.80;1.23;;;;;;;;;;5079666;28;20053;-57
2023/06/04 14:30:37;;;;;;;1.00;0.90;;;;;;;;;;5083740;28;20060;-58
2023/06/04 14:33:04;;;;;;;1.85;1.00;;;;;;;;;;5084150;28;20136;-59
2023/06/04 14:35:30;;;;;;;1.88;1.02;;;;;;;;;;5082617;28;21206;-58
2023/06/04 14:37:57;;;;;;;2.90;0.90;;;;;;;;;;5083213;28;20134;-56
2023/06/04 14:40:23;;;;;;;1.58;1.10;;;;;;;;;;5074965;28;20049;-58
2023/06/04 14:42:50;;;;;;;3.75;0.98;;;;;;;;;;5071092;28;20165;-60